sensor_id;sensor_type;location;lat;lon;timestamp;pressure;altitude;pressure_sealevel;temperature;humidity
43161;BME280;40968;52.342;5.528;2022-12-07T00:01:29;101836.88;;;3.98;81.25
43161;BME280;40968;52.342;5.528;2022-12-07T00:03:59;101831.63;;;3.97;81.14
43161;BME280;40968;52.342;5.528;2022-12-07T00:06:32;101610.53;;;2.56;81.07
43161;BME280;40968;52.342;5.528;2022-12-07T00:08:58;101834.50;;;3.89;81.08
43161;BME280;40968;52.342;5.528;2022-12-07T00:11:27;101799.13;;;3.59;80.87
43161;BME280;40968;52.342;5.528;2022-12-07T00:13:55;101786.16;;;3.51;81.12
43161;BME280;40968;52.342;5.528;2022-12-07T00:16:26;101839.28;;;3.76;81.33
43161;BME280;40968;52.342;5.528;2022-12-07T00:18:53;101828.63;;;3.78;81.25
43161;BME280;40968;52.342;5.528;2022-12-07T00:21:23;101763.75;;;3.31;81.13
43161;BME280;40968;52.342;5.528;2022-12-07T00:23:55;101754.84;;;3.32;81.33
43161;BME280;40968;52.342;5.528;2022-12-07T00:26:24;101791.41;;;3.53;81.17
43161;BME280;40968;52.342;5.528;2022-12-07T00:28:52;101782.72;;;3.47;81.26
43161;BME280;40968;52.342;5.528;2022-12-07T00:31:21;101788.81;;;3.49;81.25
43161;BME280;40968;52.342;5.528;2022-12-07T00:33:48;101834.28;;;3.67;81.33
43161;BME280;40968;52.342;5.528;2022-12-07T00:36:17;101755.50;;;3.11;81.08
43161;BME280;40968;52.342;5.528;2022-12-07T00:38:44;101784.75;;;3.38;81.21
43161;BME280;40968;52.342;5.528;2022-12-07T00:41:14;101796.19;;;3.40;81.27
43161;BME280;40968;52.342;5.528;2022-12-07T00:43:42;101718.69;;;3.02;81.23
43161;BME280;40968;52.342;5.528;2022-12-07T00:46:10;101772.44;;;3.35;81.28
43161;BME280;40968;52.342;5.528;2022-12-07T00:48:38;101751.47;;;3.27;81.42
43161;BME280;40968;52.342;5.528;2022-12-07T00:51:05;101700.19;;;3.00;81.40
43161;BME280;40968;52.342;5.528;2022-12-07T00:53:34;101753.16;;;3.31;81.31
43161;BME280;40968;52.342;5.528;2022-12-07T00:56:04;101802.75;;;3.56;81.29
43161;BME280;40968;52.342;5.528;2022-12-07T00:58:32;101768.78;;;3.39;81.18
43161;BME280;40968;52.342;5.528;2022-12-07T01:01:00;101783.09;;;3.34;81.18
43161;BME280;40968;52.342;5.528;2022-12-07T01:03:30;101797.66;;;3.50;81.13
43161;BME280;40968;52.342;5.528;2022-12-07T01:05:59;101608.50;;;2.33;81.01
43161;BME280;40968;52.342;5.528;2022-12-07T01:08:27;101754.50;;;3.15;81.07
43161;BME280;40968;52.342;5.528;2022-12-07T01:10:59;101807.53;;;3.45;80.90
43161;BME280;40968;52.342;5.528;2022-12-07T01:13:26;101756.34;;;3.11;80.83
43161;BME280;40968;52.342;5.528;2022-12-07T01:15:57;101801.44;;;3.41;80.72
43161;BME280;40968;52.342;5.528;2022-12-07T01:18:25;101534.22;;;1.76;80.68
43161;BME280;40968;52.342;5.528;2022-12-07T01:20:59;101745.31;;;2.95;80.73
43161;BME280;40968;52.342;5.528;2022-12-07T01:23:26;101694.00;;;2.68;80.43
43161;BME280;40968;52.342;5.528;2022-12-07T01:25:54;101757.50;;;3.03;80.56
43161;BME280;40968;52.342;5.528;2022-12-07T01:28:21;101688.38;;;2.49;80.46
43161;BME280;40968;52.342;5.528;2022-12-07T01:30:56;101816.75;;;3.31;80.36
43161;BME280;40968;52.342;5.528;2022-12-07T01:33:23;101802.06;;;3.18;80.50
43161;BME280;40968;52.342;5.528;2022-12-07T01:35:50;101816.91;;;3.25;80.70
43161;BME280;40968;52.342;5.528;2022-12-07T01:38:17;101737.84;;;2.78;80.45
43161;BME280;40968;52.342;5.528;2022-12-07T01:40:44;101810.81;;;3.22;80.54
43161;BME280;40968;52.342;5.528;2022-12-07T01:43:16;101796.13;;;3.10;80.57
43161;BME280;40968;52.342;5.528;2022-12-07T01:45:44;101824.09;;;3.20;80.58
43161;BME280;40968;52.342;5.528;2022-12-07T01:48:14;101825.91;;;3.20;80.65
43161;BME280;40968;52.342;5.528;2022-12-07T01:50:45;101819.66;;;3.21;80.67
43161;BME280;40968;52.342;5.528;2022-12-07T01:53:14;101679.94;;;2.35;80.65
43161;BME280;40968;52.342;5.528;2022-12-07T01:55:44;101811.66;;;3.22;80.68
43161;BME280;40968;52.342;5.528;2022-12-07T01:58:12;101821.31;;;3.25;80.68
43161;BME280;40968;52.342;5.528;2022-12-07T02:00:41;101810.66;;;3.28;80.86
43161;BME280;40968;52.342;5.528;2022-12-07T02:03:13;101642.91;;;2.33;80.78
43161;BME280;40968;52.342;5.528;2022-12-07T02:05:43;101750.47;;;3.02;80.94
43161;BME280;40968;52.342;5.528;2022-12-07T02:08:11;101810.47;;;3.34;80.67
43161;BME280;40968;52.342;5.528;2022-12-07T02:10:38;101564.69;;;1.91;80.85
43161;BME280;40968;52.342;5.528;2022-12-07T02:13:08;101752.09;;;3.06;81.02
43161;BME280;40968;52.342;5.528;2022-12-07T02:15:45;101812.13;;;3.38;81.22
43161;BME280;40968;52.342;5.528;2022-12-07T02:18:23;101751.00;;;3.13;81.23
43161;BME280;40968;52.342;5.528;2022-12-07T02:20:56;101779.81;;;3.25;81.13
43161;BME280;40968;52.342;5.528;2022-12-07T02:23:38;101747.50;;;3.12;80.98
43161;BME280;40968;52.342;5.528;2022-12-07T02:26:32;101766.47;;;3.28;81.01
43161;BME280;40968;52.342;5.528;2022-12-07T02:29:14;101751.75;;;3.18;81.17
43161;BME280;40968;52.342;5.528;2022-12-07T02:31:46;101788.06;;;3.46;81.42
43161;BME280;40968;52.342;5.528;2022-12-07T02:34:21;101799.75;;;3.39;81.10
43161;BME280;40968;52.342;5.528;2022-12-07T02:36:53;101570.19;;;2.17;81.22
43161;BME280;40968;52.342;5.528;2022-12-07T02:39:26;101735.84;;;3.18;81.30
43161;BME280;40968;52.342;5.528;2022-12-07T02:41:57;101656.88;;;2.71;81.16
43161;BME280;40968;52.342;5.528;2022-12-07T02:44:28;101689.72;;;2.95;81.52
43161;BME280;40968;52.342;5.528;2022-12-07T02:46:59;101408.84;;;1.22;81.06
43161;BME280;40968;52.342;5.528;2022-12-07T02:49:28;101633.53;;;2.54;81.20
43161;BME280;40968;52.342;5.528;2022-12-07T02:51:56;101736.13;;;3.09;81.43
43161;BME280;40968;52.342;5.528;2022-12-07T02:54:23;101738.31;;;3.24;81.32
43161;BME280;40968;52.342;5.528;2022-12-07T02:56:53;101554.38;;;2.13;81.32
43161;BME280;40968;52.342;5.528;2022-12-07T02:59:33;101781.81;;;3.47;81.13
43161;BME280;40968;52.342;5.528;2022-12-07T03:02:11;101741.25;;;3.15;81.44
43161;BME280;40968;52.342;5.528;2022-12-07T03:04:47;101746.53;;;3.15;81.48
43161;BME280;40968;52.342;5.528;2022-12-07T03:07:26;101783.66;;;3.45;81.23
43161;BME280;40968;52.342;5.528;2022-12-07T03:10:01;101775.72;;;3.45;81.42
43161;BME280;40968;52.342;5.528;2022-12-07T03:12:32;101781.00;;;3.45;81.26
43161;BME280;40968;52.342;5.528;2022-12-07T03:15:07;101736.81;;;3.15;81.28
43161;BME280;40968;52.342;5.528;2022-12-07T03:17:38;101746.38;;;3.21;81.20
43161;BME280;40968;52.342;5.528;2022-12-07T03:20:09;101791.69;;;3.42;81.06
43161;BME280;40968;52.342;5.528;2022-12-07T03:22:38;101797.94;;;3.41;80.91
43161;BME280;40968;52.342;5.528;2022-12-07T03:25:09;101775.88;;;3.39;80.93
43161;BME280;40968;52.342;5.528;2022-12-07T03:27:39;101554.63;;;2.06;80.98
43161;BME280;40968;52.342;5.528;2022-12-07T03:30:12;101604.25;;;2.27;80.83
43161;BME280;40968;52.342;5.528;2022-12-07T03:32:43;101550.22;;;2.05;81.01
43161;BME280;40968;52.342;5.528;2022-12-07T03:35:14;101685.06;;;2.72;81.18
43161;BME280;40968;52.342;5.528;2022-12-07T03:37:47;101780.44;;;3.34;81.01
43161;BME280;40968;52.342;5.528;2022-12-07T03:40:23;101519.31;;;1.74;80.87
43161;BME280;40968;52.342;5.528;2022-12-07T03:42:52;101640.53;;;2.55;81.42
43161;BME280;40968;52.342;5.528;2022-12-07T03:45:25;101774.13;;;3.38;81.30
43161;BME280;40968;52.342;5.528;2022-12-07T03:48:01;101767.03;;;3.40;81.40
43161;BME280;40968;52.342;5.528;2022-12-07T03:50:34;101737.47;;;3.22;81.10
43161;BME280;40968;52.342;5.528;2022-12-07T03:53:08;101777.63;;;3.40;81.19
43161;BME280;40968;52.342;5.528;2022-12-07T03:55:39;101741.81;;;3.26;81.18
43161;BME280;40968;52.342;5.528;2022-12-07T03:58:11;101764.44;;;3.38;81.00
43161;BME280;40968;52.342;5.528;2022-12-07T04:00:46;101752.03;;;3.39;81.14
43161;BME280;40968;52.342;5.528;2022-12-07T04:03:13;101710.53;;;3.08;80.94
43161;BME280;40968;52.342;5.528;2022-12-07T04:05:40;101675.78;;;2.89;81.12
43161;BME280;40968;52.342;5.528;2022-12-07T04:08:07;101751.19;;;3.37;81.02
43161;BME280;40968;52.342;5.528;2022-12-07T04:10:34;101760.09;;;3.36;81.10
43161;BME280;40968;52.342;5.528;2022-12-07T04:13:01;101693.25;;;2.94;80.89
43161;BME280;40968;52.342;5.528;2022-12-07T04:15:28;101663.94;;;2.71;80.97
43161;BME280;40968;52.342;5.528;2022-12-07T04:17:56;101752.34;;;3.28;81.12
43161;BME280;40968;52.342;5.528;2022-12-07T04:20:23;101763.91;;;3.25;81.04
43161;BME280;40968;52.342;5.528;2022-12-07T04:22:50;101530.53;;;1.84;80.93
43161;BME280;40968;52.342;5.528;2022-12-07T04:25:17;101730.13;;;3.02;81.11
43161;BME280;40968;52.342;5.528;2022-12-07T04:27:44;101753.59;;;3.16;81.05
43161;BME280;40968;52.342;5.528;2022-12-07T04:30:11;101670.31;;;2.63;81.07
43161;BME280;40968;52.342;5.528;2022-12-07T04:32:37;101661.91;;;2.49;80.97
43161;BME280;40968;52.342;5.528;2022-12-07T04:35:07;101728.66;;;2.92;80.94
43161;BME280;40968;52.342;5.528;2022-12-07T04:37:34;101675.03;;;2.52;81.20
43161;BME280;40968;52.342;5.528;2022-12-07T04:40:00;101634.19;;;2.29;81.06
43161;BME280;40968;52.342;5.528;2022-12-07T04:42:27;101718.41;;;2.79;81.32
43161;BME280;40968;52.342;5.528;2022-12-07T04:44:54;101690.06;;;2.50;81.32
43161;BME280;40968;52.342;5.528;2022-12-07T04:47:20;101753.28;;;2.95;81.15
43161;BME280;40968;52.342;5.528;2022-12-07T04:49:47;101697.69;;;2.62;81.24
43161;BME280;40968;52.342;5.528;2022-12-07T04:52:15;101759.56;;;2.91;81.39
43161;BME280;40968;52.342;5.528;2022-12-07T04:54:42;101749.09;;;2.87;81.66
43161;BME280;40968;52.342;5.528;2022-12-07T04:57:09;101671.78;;;2.41;81.31
43161;BME280;40968;52.342;5.528;2022-12-07T04:59:35;101748.34;;;2.81;81.49
43161;BME280;40968;52.342;5.528;2022-12-07T05:02:03;101687.66;;;2.41;81.38
43161;BME280;40968;52.342;5.528;2022-12-07T05:04:30;101664.19;;;2.28;81.29
43161;BME280;40968;52.342;5.528;2022-12-07T05:06:57;101723.41;;;2.57;81.49
43161;BME280;40968;52.342;5.528;2022-12-07T05:09:25;101603.63;;;1.85;81.23
43161;BME280;40968;52.342;5.528;2022-12-07T05:11:52;101754.84;;;2.70;81.23
43161;BME280;40968;52.342;5.528;2022-12-07T05:14:20;101754.03;;;2.68;81.27
43161;BME280;40968;52.342;5.528;2022-12-07T05:16:49;101753.13;;;2.67;81.11
43161;BME280;40968;52.342;5.528;2022-12-07T05:19:17;101640.44;;;1.92;81.08
43161;BME280;40968;52.342;5.528;2022-12-07T05:21:44;101695.78;;;2.35;80.97
43161;BME280;40968;52.342;5.528;2022-12-07T05:24:12;101744.38;;;2.65;80.89
43161;BME280;40968;52.342;5.528;2022-12-07T05:26:41;101698.59;;;2.28;80.80
43161;BME280;40968;52.342;5.528;2022-12-07T05:29:10;101635.84;;;1.99;80.70
43161;BME280;40968;52.342;5.528;2022-12-07T05:31:37;101398.13;;;0.58;80.34
43161;BME280;40968;52.342;5.528;2022-12-07T05:34:04;101403.41;;;0.58;80.34
43161;BME280;40968;52.342;5.528;2022-12-07T05:36:31;101525.00;;;1.24;80.43
43161;BME280;40968;52.342;5.528;2022-12-07T05:38:57;101703.94;;;2.25;80.44
43161;BME280;40968;52.342;5.528;2022-12-07T05:41:25;101637.78;;;1.92;80.33
43161;BME280;40968;52.342;5.528;2022-12-07T05:44:11;101755.19;;;2.57;80.43
43161;BME280;40968;52.342;5.528;2022-12-07T05:46:38;101759.56;;;2.58;80.47
43161;BME280;40968;52.342;5.528;2022-12-07T05:49:04;101742.75;;;2.59;80.57
43161;BME280;40968;52.342;5.528;2022-12-07T05:51:31;101740.91;;;2.63;80.87
43161;BME280;40968;52.342;5.528;2022-12-07T05:53:58;101631.34;;;2.03;80.83
43161;BME280;40968;52.342;5.528;2022-12-07T05:56:25;101733.59;;;2.73;81.06
43161;BME280;40968;52.342;5.528;2022-12-07T05:58:52;101678.88;;;2.40;80.89
43161;BME280;40968;52.342;5.528;2022-12-07T06:01:37;101395.00;;;0.78;80.98
43161;BME280;40968;52.342;5.528;2022-12-07T06:04:04;101638.66;;;2.27;81.39
43161;BME280;40968;52.342;5.528;2022-12-07T06:06:31;101724.56;;;2.80;81.18
43161;BME280;40968;52.342;5.528;2022-12-07T06:08:59;101722.81;;;2.80;81.10
43161;BME280;40968;52.342;5.528;2022-12-07T06:11:26;101693.41;;;2.58;80.96
43161;BME280;40968;52.342;5.528;2022-12-07T06:14:10;101731.59;;;2.81;81.27
43161;BME280;40968;52.342;5.528;2022-12-07T06:16:38;101729.84;;;2.80;80.95
43161;BME280;40968;52.342;5.528;2022-12-07T06:19:05;101729.03;;;2.78;81.13
43161;BME280;40968;52.342;5.528;2022-12-07T06:21:31;101691.97;;;2.46;80.79
43161;BME280;40968;52.342;5.528;2022-12-07T06:23:59;101732.66;;;2.74;81.07
43161;BME280;40968;52.342;5.528;2022-12-07T06:26:26;101740.66;;;2.72;80.87
43161;BME280;40968;52.342;5.528;2022-12-07T06:28:53;101736.31;;;2.70;80.68
43161;BME280;40968;52.342;5.528;2022-12-07T06:31:20;101736.34;;;2.68;80.74
43161;BME280;40968;52.342;5.528;2022-12-07T06:33:48;101636.50;;;2.09;80.78
43161;BME280;40968;52.342;5.528;2022-12-07T06:36:16;101732.09;;;2.62;80.87
43161;BME280;40968;52.342;5.528;2022-12-07T06:38:43;101705.25;;;2.43;80.75
43161;BME280;40968;52.342;5.528;2022-12-07T06:41:09;101726.91;;;2.58;80.86
43161;BME280;40968;52.342;5.528;2022-12-07T06:43:37;101734.91;;;2.56;80.98
43161;BME280;40968;52.342;5.528;2022-12-07T06:46:05;101498.94;;;1.08;80.87
43161;BME280;40968;52.342;5.528;2022-12-07T06:48:31;101750.03;;;2.51;81.07
43161;BME280;40968;52.342;5.528;2022-12-07T06:50:59;101680.63;;;2.07;81.30
43161;BME280;40968;52.342;5.528;2022-12-07T06:53:28;101752.81;;;2.45;81.57
43161;BME280;40968;52.342;5.528;2022-12-07T06:55:55;101648.56;;;1.85;81.45
43161;BME280;40968;52.342;5.528;2022-12-07T06:58:22;101503.66;;;0.95;81.42
43161;BME280;40968;52.342;5.528;2022-12-07T07:00:51;101667.75;;;1.93;81.39
43161;BME280;40968;52.342;5.528;2022-12-07T07:03:18;101679.19;;;1.93;81.54
43161;BME280;40968;52.342;5.528;2022-12-07T07:05:47;101674.00;;;1.90;81.56
43161;BME280;40968;52.342;5.528;2022-12-07T07:08:15;101717.06;;;1.95;81.47
43161;BME280;40968;52.342;5.528;2022-12-07T07:10:42;101653.31;;;1.72;81.43
43161;BME280;40968;52.342;5.528;2022-12-07T07:13:09;101702.19;;;1.91;81.75
43161;BME280;40968;52.342;5.528;2022-12-07T07:15:37;101700.44;;;1.90;82.01
43161;BME280;40968;52.342;5.528;2022-12-07T07:18:07;101768.41;;;2.21;82.03
43161;BME280;40968;52.342;5.528;2022-12-07T07:20:35;101688.38;;;1.77;82.10
43161;BME280;40968;52.342;5.528;2022-12-07T07:23:01;101516.59;;;0.69;81.95
43161;BME280;40968;52.342;5.528;2022-12-07T07:25:31;101793.03;;;2.25;82.43
43161;BME280;40968;52.342;5.528;2022-12-07T07:27:57;101659.00;;;1.53;82.38
43161;BME280;40968;52.342;5.528;2022-12-07T07:30:24;101734.50;;;2.03;82.54
43161;BME280;40968;52.342;5.528;2022-12-07T07:32:51;101731.00;;;2.02;82.57
43161;BME280;40968;52.342;5.528;2022-12-07T07:35:22;101723.25;;;1.94;82.77
43161;BME280;40968;52.342;5.528;2022-12-07T07:37:49;101687.44;;;1.81;82.63
43161;BME280;40968;52.342;5.528;2022-12-07T07:40:17;101735.16;;;2.11;82.50
43161;BME280;40968;52.342;5.528;2022-12-07T07:42:47;101744.75;;;2.17;82.30
43161;BME280;40968;52.342;5.528;2022-12-07T07:45:14;101689.81;;;1.92;82.57
43161;BME280;40968;52.342;5.528;2022-12-07T07:47:41;101695.38;;;1.81;82.30
43161;BME280;40968;52.342;5.528;2022-12-07T07:50:09;101724.00;;;1.99;82.27
43161;BME280;40968;52.342;5.528;2022-12-07T07:52:36;101759.72;;;2.18;82.20
43161;BME280;40968;52.342;5.528;2022-12-07T07:55:04;101757.13;;;2.14;82.23
43161;BME280;40968;52.342;5.528;2022-12-07T07:57:30;101387.31;;;-0.10;82.21
43161;BME280;40968;52.342;5.528;2022-12-07T07:59:58;101776.53;;;2.13;82.42
43161;BME280;40968;52.342;5.528;2022-12-07T08:02:25;101770.44;;;2.11;82.33
43161;BME280;40968;52.342;5.528;2022-12-07T08:04:55;101674.00;;;1.53;82.23
43161;BME280;40968;52.342;5.528;2022-12-07T08:07:22;101770.47;;;2.10;82.23
43161;BME280;40968;52.342;5.528;2022-12-07T08:09:48;101776.66;;;2.09;82.18
43161;BME280;40968;52.342;5.528;2022-12-07T08:12:15;101770.47;;;2.10;82.39
43161;BME280;40968;52.342;5.528;2022-12-07T08:14:42;101776.53;;;2.13;82.12
43161;BME280;40968;52.342;5.528;2022-12-07T08:17:10;101732.38;;;1.81;82.34
43161;BME280;40968;52.342;5.528;2022-12-07T08:19:38;101775.59;;;2.16;82.46
43161;BME280;40968;52.342;5.528;2022-12-07T08:22:05;101787.00;;;2.18;82.58
43161;BME280;40968;52.342;5.528;2022-12-07T08:24:33;101693.94;;;1.66;82.23
43161;BME280;40968;52.342;5.528;2022-12-07T08:27:00;101543.47;;;0.86;82.45
43161;BME280;40968;52.342;5.528;2022-12-07T08:29:27;101743.38;;;2.00;82.49
43161;BME280;40968;52.342;5.528;2022-12-07T08:31:53;101621.84;;;1.23;82.61
43161;BME280;40968;52.342;5.528;2022-12-07T08:34:22;101779.66;;;2.31;82.53
43161;BME280;40968;52.342;5.528;2022-12-07T08:36:48;101640.63;;;1.48;82.42
43161;BME280;40968;52.342;5.528;2022-12-07T08:39:15;101658.84;;;1.59;82.59
43161;BME280;40968;52.342;5.528;2022-12-07T08:41:42;101795.38;;;2.37;82.93
43161;BME280;40968;52.342;5.528;2022-12-07T08:44:08;101705.72;;;1.90;82.62
43161;BME280;40968;52.342;5.528;2022-12-07T08:46:37;101675.84;;;1.87;82.51
43161;BME280;40968;52.342;5.528;2022-12-07T08:49:08;101598.50;;;1.42;82.48
43161;BME280;40968;52.342;5.528;2022-12-07T08:51:39;101665.22;;;1.88;82.57
43161;BME280;40968;52.342;5.528;2022-12-07T08:54:10;101705.13;;;2.15;82.56
43161;BME280;40968;52.342;5.528;2022-12-07T08:56:37;101767.69;;;2.51;82.58
43161;BME280;40968;52.342;5.528;2022-12-07T08:59:05;101765.00;;;2.52;82.75
43161;BME280;40968;52.342;5.528;2022-12-07T09:01:32;101626.78;;;1.75;82.56
43161;BME280;40968;52.342;5.528;2022-12-07T09:03:59;101756.81;;;2.61;82.69
43161;BME280;40968;52.342;5.528;2022-12-07T09:06:26;101668.22;;;2.09;82.95
43161;BME280;40968;52.342;5.528;2022-12-07T09:08:57;101767.06;;;2.74;82.99
43161;BME280;40968;52.342;5.528;2022-12-07T09:11:24;101663.59;;;2.17;82.89
43161;BME280;40968;52.342;5.528;2022-12-07T09:13:51;101706.19;;;2.41;82.65
43161;BME280;40968;52.342;5.528;2022-12-07T09:16:18;101708.50;;;2.55;82.59
43161;BME280;40968;52.342;5.528;2022-12-07T09:18:44;101693.66;;;2.49;82.41
43161;BME280;40968;52.342;5.528;2022-12-07T09:21:14;101630.25;;;2.11;82.47
43161;BME280;40968;52.342;5.528;2022-12-07T09:23:41;101770.16;;;2.91;82.19
43161;BME280;40968;52.342;5.528;2022-12-07T09:26:09;101552.13;;;1.67;81.96
43161;BME280;40968;52.342;5.528;2022-12-07T09:28:36;101768.16;;;2.99;82.11
43161;BME280;40968;52.342;5.528;2022-12-07T09:31:04;101699.44;;;2.63;82.08
43161;BME280;40968;52.342;5.528;2022-12-07T09:33:31;101721.16;;;2.75;82.25
43161;BME280;40968;52.342;5.528;2022-12-07T09:35:58;101691.50;;;2.63;82.01
43161;BME280;40968;52.342;5.528;2022-12-07T09:38:25;101780.88;;;3.20;82.14
43161;BME280;40968;52.342;5.528;2022-12-07T09:40:52;101612.34;;;2.23;81.87
43161;BME280;40968;52.342;5.528;2022-12-07T09:43:23;101743.84;;;3.17;81.91
43161;BME280;40968;52.342;5.528;2022-12-07T09:45:53;101777.47;;;3.46;81.78
43161;BME280;40968;52.342;5.528;2022-12-07T09:48:23;101692.47;;;2.92;81.52
43161;BME280;40968;52.342;5.528;2022-12-07T09:50:51;101779.72;;;3.58;81.54
43161;BME280;40968;52.342;5.528;2022-12-07T09:53:26;101500.03;;;2.03;81.09
43161;BME280;40968;52.342;5.528;2022-12-07T09:55:55;101625.59;;;2.84;80.78
43161;BME280;40968;52.342;5.528;2022-12-07T09:58:27;101768.72;;;3.72;80.63
43161;BME280;40968;52.342;5.528;2022-12-07T10:00:57;101717.41;;;3.45;80.52
43161;BME280;40968;52.342;5.528;2022-12-07T10:03:26;101719.88;;;3.51;80.34
43161;BME280;40968;52.342;5.528;2022-12-07T10:05:54;101721.47;;;3.57;80.04
43161;BME280;40968;52.342;5.528;2022-12-07T10:08:22;101522.22;;;2.29;79.79
43161;BME280;40968;52.342;5.528;2022-12-07T10:10:51;101760.41;;;3.83;79.65
43161;BME280;40968;52.342;5.528;2022-12-07T10:13:20;101753.19;;;3.88;79.82
43161;BME280;40968;52.342;5.528;2022-12-07T10:15:51;101609.19;;;3.03;79.78
43161;BME280;40968;52.342;5.528;2022-12-07T10:18:25;101652.91;;;3.46;79.78
43161;BME280;40968;52.342;5.528;2022-12-07T10:21:10;101710.66;;;3.91;79.72
43161;BME280;40968;52.342;5.528;2022-12-07T10:23:39;101709.53;;;3.98;79.39
43161;BME280;40968;52.342;5.528;2022-12-07T10:26:38;101689.53;;;3.88;79.16
43161;BME280;40968;52.342;5.528;2022-12-07T10:29:15;101680.56;;;3.92;79.05
43161;BME280;40968;52.342;5.528;2022-12-07T10:31:45;101488.34;;;2.98;78.83
43161;BME280;40968;52.342;5.528;2022-12-07T10:34:21;101674.13;;;4.26;78.66
43161;BME280;40968;52.342;5.528;2022-12-07T10:36:49;101585.41;;;3.83;78.34
43161;BME280;40968;52.342;5.528;2022-12-07T10:39:18;101720.97;;;4.78;78.22
43161;BME280;40968;52.342;5.528;2022-12-07T10:41:56;101738.25;;;4.90;77.91
43161;BME280;40968;52.342;5.528;2022-12-07T10:44:24;101682.34;;;4.69;77.65
43161;BME280;40968;52.342;5.528;2022-12-07T10:47:11;101734.78;;;5.13;77.46
43161;BME280;40968;52.342;5.528;2022-12-07T10:50:14;101595.44;;;4.49;77.02
43161;BME280;40968;52.342;5.528;2022-12-07T10:55:45;101546.13;;;4.43;76.28
43161;BME280;40968;52.342;5.528;2022-12-07T10:58:32;101671.31;;;5.27;75.85
43161;BME280;40968;52.342;5.528;2022-12-07T11:01:09;101699.25;;;5.61;75.02
43161;BME280;40968;52.342;5.528;2022-12-07T11:03:51;101489.41;;;4.46;74.13
43161;BME280;40968;52.342;5.528;2022-12-07T11:06:27;101612.16;;;5.22;73.80
43161;BME280;40968;52.342;5.528;2022-12-07T11:09:21;101707.53;;;5.76;73.68
43161;BME280;40968;52.342;5.528;2022-12-07T11:11:55;101582.97;;;4.98;73.41
43161;BME280;40968;52.342;5.528;2022-12-07T11:14:29;101696.53;;;5.63;73.22
43161;BME280;40968;52.342;5.528;2022-12-07T11:17:04;101697.50;;;5.60;73.21
43161;BME280;40968;52.342;5.528;2022-12-07T11:19:49;101699.38;;;5.58;73.39
43161;BME280;40968;52.342;5.528;2022-12-07T11:22:24;101692.31;;;5.57;73.33
43161;BME280;40968;52.342;5.528;2022-12-07T11:24:59;101696.41;;;5.66;73.07
43161;BME280;40968;52.342;5.528;2022-12-07T11:27:35;101687.69;;;5.62;72.83
43161;BME280;40968;52.342;5.528;2022-12-07T11:30:12;101368.72;;;3.61;72.13
43161;BME280;40968;52.342;5.528;2022-12-07T11:33:01;101693.25;;;5.56;72.39
43161;BME280;40968;52.342;5.528;2022-12-07T11:35:38;101669.19;;;5.37;72.53
43161;BME280;40968;52.342;5.528;2022-12-07T11:38:14;101680.31;;;5.47;72.92
43161;BME280;40968;52.342;5.528;2022-12-07T11:40:45;101696.19;;;5.48;72.98
43161;BME280;40968;52.342;5.528;2022-12-07T11:43:20;101701.22;;;5.56;73.29
43161;BME280;40968;52.342;5.528;2022-12-07T11:45:55;101626.31;;;5.45;73.27
43161;BME280;40968;52.342;5.528;2022-12-07T11:48:30;101685.50;;;5.94;72.77
43161;BME280;40968;52.342;5.528;2022-12-07T11:51:01;101613.09;;;5.65;72.15
43161;BME280;40968;52.342;5.528;2022-12-07T11:53:34;101650.81;;;5.97;71.59
43161;BME280;40968;52.342;5.528;2022-12-07T11:56:09;101615.03;;;5.82;71.26
43161;BME280;40968;52.342;5.528;2022-12-07T11:58:47;101529.00;;;5.41;71.18
43161;BME280;40968;52.342;5.528;2022-12-07T12:01:26;101656.97;;;6.20;70.94
43161;BME280;40968;52.342;5.528;2022-12-07T12:03:59;101566.94;;;5.67;70.48
43161;BME280;40968;52.342;5.528;2022-12-07T12:06:29;101657.63;;;6.25;69.73
43161;BME280;40968;52.342;5.528;2022-12-07T12:09:02;101653.09;;;6.27;69.50
43161;BME280;40968;52.342;5.528;2022-12-07T12:11:44;101589.63;;;5.96;69.46
43161;BME280;40968;52.342;5.528;2022-12-07T12:14:32;101642.75;;;6.61;69.17
43161;BME280;40968;52.342;5.528;2022-12-07T12:17:19;101536.28;;;6.01;68.50
43161;BME280;40968;52.342;5.528;2022-12-07T12:19:59;101615.06;;;6.44;68.09
43161;BME280;40968;52.342;5.528;2022-12-07T12:22:34;101271.25;;;4.36;67.72
43161;BME280;40968;52.342;5.528;2022-12-07T12:25:05;101408.31;;;5.04;67.68
43161;BME280;40968;52.342;5.528;2022-12-07T12:27:35;101634.88;;;6.39;67.62
43161;BME280;40968;52.342;5.528;2022-12-07T12:30:07;101627.13;;;6.33;67.72
43161;BME280;40968;52.342;5.528;2022-12-07T12:32:50;101578.84;;;6.01;68.22
43161;BME280;40968;52.342;5.528;2022-12-07T12:35:27;101501.66;;;5.59;68.64
43161;BME280;40968;52.342;5.528;2022-12-07T12:38:32;101570.97;;;5.97;68.37
43161;BME280;40968;52.342;5.528;2022-12-07T12:41:00;101543.63;;;5.73;68.42
43161;BME280;40968;52.342;5.528;2022-12-07T12:43:48;101548.19;;;5.70;68.54
43161;BME280;40968;52.342;5.528;2022-12-07T12:46:37;101504.97;;;5.44;69.22
43161;BME280;40968;52.342;5.528;2022-12-07T12:49:37;101543.88;;;5.67;69.47
43161;BME280;40968;52.342;5.528;2022-12-07T12:58:34;101524.72;;;5.59;69.40
43161;BME280;40968;52.342;5.528;2022-12-07T13:01:32;101601.31;;;6.14;69.60
43161;BME280;40968;52.342;5.528;2022-12-07T13:03:59;101609.06;;;6.20;69.58
43161;BME280;40968;52.342;5.528;2022-12-07T13:06:34;101551.31;;;6.02;69.88
43161;BME280;40968;52.342;5.528;2022-12-07T13:09:03;101572.59;;;6.22;69.79
43161;BME280;40968;52.342;5.528;2022-12-07T13:11:34;101457.25;;;5.61;68.97
43161;BME280;40968;52.342;5.528;2022-12-07T13:14:38;101583.84;;;6.48;69.17
43161;BME280;40968;52.342;5.528;2022-12-07T13:17:08;101575.59;;;6.54;68.52
43161;BME280;40968;52.342;5.528;2022-12-07T13:19:56;101575.31;;;6.60;68.40
43161;BME280;40968;52.342;5.528;2022-12-07T13:22:51;101316.06;;;5.07;67.90
43161;BME280;40968;52.342;5.528;2022-12-07T13:25:26;101510.16;;;6.29;68.13
43161;BME280;40968;52.342;5.528;2022-12-07T13:28:00;101483.72;;;6.06;68.41
43161;BME280;40968;52.342;5.528;2022-12-07T13:30:29;101562.44;;;6.51;68.81